Time;durP1;ratioP1;P1;durP2;ratioP2;P2;SDS_P1;SDS_P2;PMS_P1;PMS_P2;Temp;Humidity;BMP_temperature;BMP_pressure;BME280_temperature;BME280_humidity;BME280_pressure;Samples;Min_cycle;Max_cycle;Signal;HPM_P1;HPM_P2
2023/09/02 00:02:06;;;;;;;9.00;2.45;;;12.20;99.90;;;11.00;95.67;101189.00;4974769;28;20030;-74
2023/09/02 00:04:32;;;;;;;5.50;2.08;;;12.10;99.90;;;11.02;97.81;101185.38;5009222;28;20738;-74
2023/09/02 00:06:58;;;;;;;9.63;2.00;;;12.20;99.90;;;11.08;98.92;101182.50;5009459;28;20088;-74
2023/09/02 00:09:24;;;;;;;4.60;1.75;;;12.20;99.90;;;11.15;99.83;101188.38;4992495;28;20037;-74
2023/09/02 00:11:50;;;;;;;6.43;2.03;;;12.20;99.90;;;11.23;99.85;101194.19;4990087;28;20022;-74
2023/09/02 00:14:15;;;;;;;5.45;2.17;;;12.30;99.90;;;11.30;100.00;101197.41;4990770;28;20594;-74
2023/09/02 00:16:41;;;;;;;6.68;1.80;;;12.40;99.90;;;11.35;99.76;101198.06;4988910;28;20130;-74
2023/09/02 00:19:07;;;;;;;7.13;1.85;;;12.40;99.90;;;11.40;99.62;101203.13;5010021;28;20041;-74
2023/09/02 00:21:33;;;;;;;6.03;2.05;;;12.40;99.90;;;11.43;99.03;101200.41;4975446;28;20113;-75
2023/09/02 00:24:05;;;;;;;5.35;1.88;;;12.50;99.90;;;11.44;98.99;101202.09;5006935;28;20037;-74
2023/09/02 00:26:32;;;;;;;7.78;2.13;;;12.50;99.90;;;11.44;99.00;101202.94;4991367;28;20510;-75
2023/09/02 00:28:59;;;;;;;5.00;2.10;;;12.50;99.90;;;11.45;99.17;101212.59;4991723;28;20034;-74
2023/09/02 00:31:26;;;;;;;4.88;2.38;;;12.50;99.90;;;11.44;98.46;101207.38;4992208;28;20423;-76
2023/09/02 00:33:52;;;;;;;6.47;2.10;;;12.50;99.90;;;11.43;98.37;101201.25;4990980;28;20535;-74
2023/09/02 00:36:19;;;;;;;6.10;2.28;;;12.50;99.90;;;11.41;98.81;101205.72;4989900;28;20029;-74
2023/09/02 00:38:45;;;;;;;3.42;2.00;;;12.50;99.90;;;11.37;98.14;101201.50;4990647;28;20049;-74
2023/09/02 00:41:31;;;;;;;7.60;2.33;;;12.40;99.90;;;11.30;97.06;101197.41;4991326;28;20492;-74
2023/09/02 00:43:57;;;;;;;4.70;2.30;;;12.30;99.90;;;11.17;96.87;101199.72;5006609;28;20743;-74
2023/09/02 00:46:24;;;;;;;6.50;2.38;;;12.20;99.90;;;11.05;96.13;101197.56;4988456;28;20573;-75
2023/09/02 00:48:50;;;;;;;12.45;2.00;;;12.10;99.90;;;10.95;95.73;101204.13;5007314;28;20029;-75
2023/09/02 00:51:16;;;;;;;4.45;1.95;;;12.00;99.90;;;10.87;96.23;101194.75;5007776;28;20037;-75
2023/09/02 00:53:46;;;;;;;4.97;2.65;;;12.00;99.90;;;10.79;96.16;101203.91;5008549;28;20068;-74
2023/09/02 00:56:15;;;;;;;4.38;2.40;;;11.90;99.90;;;10.71;96.91;101191.00;4974738;28;20026;-74
2023/09/02 00:58:41;;;;;;;6.45;2.53;;;11.80;99.90;;;10.66;97.53;101193.00;4989307;28;20022;-74
2023/09/02 01:01:08;;;;;;;5.85;2.35;;;11.80;99.90;;;10.60;97.62;101194.06;5007549;28;20048;-75
2023/09/02 01:03:37;;;;;;;6.68;2.60;;;11.70;99.90;;;10.54;98.00;101194.34;4990283;28;20550;-75
2023/09/02 01:06:04;;;;;;;4.80;2.17;;;11.70;99.90;;;10.49;97.64;101198.91;5008925;28;20037;-74
2023/09/02 01:08:30;;;;;;;7.28;2.40;;;11.60;99.90;;;10.42;97.76;101194.81;4991986;28;20141;-74
2023/09/02 01:11:01;;;;;;;5.45;2.33;;;11.50;99.90;;;10.36;97.22;101201.16;4990274;28;20026;-74
2023/09/02 01:13:29;;;;;;;7.35;2.75;;;11.50;99.90;;;10.35;98.39;101202.09;4990732;28;20033;-75
2023/09/02 01:15:55;;;;;;;7.55;2.67;;;11.50;99.90;;;10.31;99.31;101200.47;4990564;28;20104;-74
2023/09/02 01:18:25;;;;;;;7.35;3.00;;;11.50;99.90;;;10.29;100.00;101197.03;4989648;28;20614;-74
2023/09/02 01:21:54;;;;;;;6.88;2.92;;;11.40;99.90;;;10.31;100.00;101199.63;4991287;28;20038;-74
2023/09/02 01:25:19;;;;;;;7.07;2.40;;;11.40;99.90;;;10.26;100.00;101211.16;4991711;28;20049;-74
2023/09/02 01:28:10;;;;;;;4.32;2.53;;;11.30;99.90;;;10.20;100.00;101210.53;4966166;28;20046;-74
2023/09/02 01:30:37;;;;;;;6.68;3.05;;;11.30;99.90;;;10.12;100.00;101212.56;4951121;28;20054;-74
2023/09/02 01:33:08;;;;;;;8.85;3.15;;;11.30;99.90;;;10.09;100.00;101213.56;4950053;28;20073;-74
2023/09/02 01:35:37;;;;;;;8.25;2.80;;;11.30;99.90;;;10.03;100.00;101219.88;4965946;28;20137;-74
2023/09/02 01:38:05;;;;;;;5.90;2.85;;;11.20;99.90;;;9.96;100.00;101209.66;4951584;28;20031;-75
2023/09/02 01:40:32;;;;;;;7.18;3.10;;;11.10;99.90;;;9.91;100.00;101216.84;4950429;28;20042;-75
2023/09/02 01:42:59;;;;;;;7.45;2.85;;;11.00;99.90;;;9.83;99.93;101223.25;4950543;28;20038;-74
2023/09/02 01:45:29;;;;;;;4.38;2.60;;;11.00;99.90;;;9.79;99.83;101221.63;4965500;28;20378;-74
2023/09/02 01:47:55;;;;;;;8.60;3.35;;;11.00;99.90;;;9.78;100.00;101213.78;4935388;28;20113;-75
2023/09/02 01:50:30;;;;;;;8.40;3.30;;;10.90;99.90;;;9.77;100.00;101218.19;4936887;28;20027;-74
2023/09/02 01:52:57;;;;;;;13.25;3.30;;;10.90;99.90;;;9.79;100.00;101220.78;4950499;28;20050;-74
2023/09/02 01:55:24;;;;;;;7.88;3.50;;;10.90;99.90;;;9.83;100.00;101217.13;4951035;28;20054;-75
2023/09/02 01:57:49;;;;;;;6.75;3.05;;;11.00;99.90;;;9.85;100.00;101217.94;4949660;28;20412;-74
2023/09/02 02:00:15;;;;;;;8.65;4.00;;;11.00;99.90;;;9.87;100.00;101208.22;4949840;28;20034;-74
2023/09/02 02:02:44;;;;;;;5.45;3.58;;;11.00;99.90;;;9.89;100.00;101222.16;4984932;28;20128;-74
2023/09/02 02:05:14;;;;;;;7.55;3.17;;;11.00;99.90;;;9.87;100.00;101226.63;4991104;28;20061;-74
2023/09/02 02:07:45;;;;;;;6.63;3.90;;;11.00;99.90;;;9.81;100.00;101222.44;4991272;28;20110;-74
2023/09/02 02:10:17;;;;;;;8.65;4.05;;;10.90;99.90;;;9.80;100.00;101233.00;4987559;28;20018;-74
2023/09/02 02:12:44;;;;;;;5.80;3.20;;;10.90;99.90;;;9.75;100.00;101214.75;4989605;28;20084;-74
2023/09/02 02:15:13;;;;;;;7.78;4.20;;;10.90;99.90;;;9.75;100.00;101224.44;4972396;28;20381;-74
2023/09/02 02:17:39;;;;;;;11.15;4.20;;;10.90;99.90;;;9.76;100.00;101223.50;4990867;28;20030;-74
2023/09/02 02:20:06;;;;;;;8.63;4.38;;;10.90;99.90;;;9.77;100.00;101230.50;4989662;28;20030;-74
2023/09/02 02:22:32;;;;;;;13.07;5.10;;;10.90;99.90;;;9.78;100.00;101229.56;5005391;28;20144;-74
2023/09/02 02:24:58;;;;;;;10.57;5.43;;;10.90;99.90;;;9.80;100.00;101222.47;4989078;28;20026;-74
2023/09/02 02:27:23;;;;;;;11.43;4.70;;;11.00;99.90;;;9.81;100.00;101222.44;4990214;28;20045;-74
2023/09/02 02:29:49;;;;;;;9.45;4.93;;;11.00;99.90;;;9.84;100.00;101221.47;4991132;28;20030;-74
2023/09/02 02:32:15;;;;;;;13.13;5.28;;;11.00;99.90;;;9.86;100.00;101238.06;4990269;28;20041;-75
2023/09/02 02:34:40;;;;;;;13.32;5.90;;;11.00;99.90;;;9.87;100.00;101239.78;4990564;28;20038;-74
2023/09/02 02:37:06;;;;;;;7.53;5.00;;;11.00;99.90;;;9.90;100.00;101244.91;5010959;28;20026;-75
2023/09/02 02:39:32;;;;;;;11.70;5.18;;;11.00;99.90;;;9.91;100.00;101240.50;4993772;28;20095;-74
2023/09/02 02:41:58;;;;;;;12.15;4.30;;;11.00;99.90;;;9.92;100.00;101242.25;5011103;28;20121;-74
2023/09/02 02:44:24;;;;;;;8.13;4.50;;;11.10;99.90;;;9.92;100.00;101250.13;4990945;28;20038;-74
2023/09/02 02:46:49;;;;;;;13.32;5.40;;;11.10;99.90;;;9.91;100.00;101254.50;4989762;28;20518;-74
2023/09/02 02:49:15;;;;;;;9.50;4.63;;;11.00;99.90;;;9.88;100.00;101262.53;5009321;28;20061;-74
2023/09/02 02:51:41;;;;;;;7.57;4.30;;;11.00;99.90;;;9.85;100.00;101260.03;4994205;28;20030;-74
2023/09/02 02:54:06;;;;;;;14.57;5.40;;;11.00;99.90;;;9.83;100.00;101260.06;4992948;28;20030;-75
2023/09/02 02:56:32;;;;;;;10.50;5.47;;;11.00;99.90;;;9.83;100.00;101270.59;5007867;28;20072;-74
2023/09/02 02:58:58;;;;;;;12.13;5.82;;;11.00;99.90;;;9.84;100.00;101268.81;4993448;28;20026;-74
2023/09/02 03:01:23;;;;;;;15.13;5.78;;;11.00;99.90;;;9.84;100.00;101267.03;5010171;28;20053;-74
2023/09/02 03:03:49;;;;;;;11.38;5.40;;;10.90;99.90;;;9.86;100.00;101277.50;4993529;28;20022;-74
2023/09/02 03:06:20;;;;;;;7.97;3.90;;;11.00;99.90;;;9.85;100.00;101271.38;4991988;28;20037;-74
2023/09/02 03:08:46;;;;;;;15.80;5.10;;;11.00;99.90;;;9.84;100.00;101268.81;5012731;28;20120;-75
2023/09/02 03:11:12;;;;;;;11.60;5.57;;;11.00;99.90;;;9.85;100.00;101273.16;4992130;28;20026;-74
2023/09/02 03:13:38;;;;;;;12.63;5.63;;;11.00;99.90;;;9.87;100.00;101276.59;4991999;28;20034;-74
2023/09/02 03:16:04;;;;;;;11.15;5.68;;;11.00;99.90;;;9.89;100.00;101279.16;4991230;28;20030;-74
2023/09/02 03:18:33;;;;;;;11.30;6.00;;;11.00;99.90;;;9.91;100.00;101277.34;4991700;28;20117;-75
2023/09/02 03:21:07;;;;;;;12.65;6.15;;;11.00;99.90;;;9.93;100.00;101276.38;5012253;28;20077;-74
2023/09/02 03:23:34;;;;;;;8.02;5.18;;;11.00;99.90;;;9.92;100.00;101277.28;5011865;28;20029;-74
2023/09/02 03:26:11;;;;;;;9.98;5.57;;;11.00;99.90;;;9.92;100.00;101274.66;4992002;28;20508;-74
2023/09/02 03:28:37;;;;;;;12.48;6.00;;;11.00;99.90;;;9.90;100.00;101279.13;4992543;28;20492;-74
2023/09/02 03:31:10;;;;;;;12.60;6.55;;;11.00;99.90;;;9.89;100.00;101285.28;4988714;28;20050;-74
2023/09/02 03:33:36;;;;;;;14.10;7.78;;;11.00;99.90;;;9.86;100.00;101286.25;4994881;28;20033;-75
2023/09/02 03:36:03;;;;;;;12.60;6.68;;;11.00;99.90;;;9.84;100.00;101285.44;4991261;28;20080;-74
2023/09/02 03:38:31;;;;;;;10.57;7.25;;;11.00;99.90;;;9.84;100.00;101285.44;4993028;28;20061;-74
2023/09/02 03:40:58;;;;;;;14.82;7.05;;;11.00;99.90;;;9.81;100.00;101282.06;4993220;28;20103;-74
2023/09/02 03:43:23;;;;;;;13.38;7.38;;;10.90;99.90;;;9.80;100.00;101290.88;4990346;28;20023;-75
2023/09/02 03:45:49;;;;;;;15.10;8.38;;;10.90;99.90;;;9.77;100.00;101289.19;4973704;28;20447;-75
2023/09/02 03:48:19;;;;;;;21.50;9.90;;;10.90;99.90;;;9.77;100.00;101288.34;5009184;28;20082;-75
2023/09/02 03:51:05;;;;;;;24.98;10.23;;;10.80;99.90;;;9.74;100.00;101284.06;5010717;28;20030;-74
2023/09/02 03:53:31;;;;;;;19.30;9.27;;;10.90;99.90;;;9.74;100.00;101284.06;5020487;28;20760;-74
2023/09/02 03:55:58;;;;;;;15.68;7.15;;;10.90;99.90;;;9.73;100.00;101284.97;4990507;28;20029;-75
2023/09/02 03:58:26;;;;;;;11.77;7.50;;;10.80;99.90;;;9.72;100.00;101293.78;5008292;28;20029;-75
2023/09/02 04:00:51;;;;;;;13.48;8.15;;;10.90;99.90;;;9.72;100.00;101295.50;4991216;28;20527;-75
2023/09/02 04:03:21;;;;;;;23.23;8.88;;;10.80;99.90;;;9.74;100.00;101285.81;4992718;28;20037;-74
2023/09/02 04:05:50;;;;;;;23.02;10.38;;;10.90;99.90;;;9.77;100.00;101297.09;4991202;28;20040;-75
2023/09/02 04:08:22;;;;;;;16.02;7.95;;;10.90;99.90;;;9.79;100.00;101297.03;4990400;28;20026;-74
2023/09/02 04:10:58;;;;;;;15.07;7.05;;;10.90;99.90;;;9.78;100.00;101304.09;4993884;28;20025;-74
2023/09/02 04:13:25;;;;;;;;;;;10.90;99.90;;;9.77;100.00;101304.13;5009117;28;20041;-74
2023/09/02 04:15:58;;;;;;;;;;;10.90;99.90;;;9.75;100.00;101301.53;4991320;28;19917;-74
2023/09/02 04:18:24;;;;;;;102.60;12.32;;;10.80;99.90;;;9.73;100.00;101300.72;4988941;28;20379;-75
2023/09/02 04:20:50;;;;;;;15.15;7.03;;;10.90;99.90;;;9.74;100.00;101301.59;4990132;28;20044;-74
2023/09/02 04:23:17;;;;;;;9.15;5.40;;;10.90;99.90;;;9.75;100.00;101305.94;4990746;28;20045;-74
2023/09/02 04:25:51;;;;;;;20.98;8.82;;;10.80;99.90;;;9.78;100.00;101303.19;4992155;28;20088;-74
2023/09/02 04:28:17;;;;;;;21.17;10.73;;;10.90;99.90;;;9.84;100.00;101303.00;4992182;28;20033;-74
2023/09/02 04:30:47;;;;;;;27.08;10.95;;;10.90;99.90;;;9.93;100.00;101312.34;4990014;28;20032;-74
2023/09/02 04:33:14;;;;;;;26.35;10.38;;;11.00;99.90;;;9.96;100.00;101313.09;5005998;28;20118;-74
2023/09/02 04:35:42;;;;;;;27.95;11.65;;;11.00;99.90;;;9.99;100.00;101309.50;5006767;28;20033;-74
2023/09/02 04:38:08;;;;;;;17.80;9.35;;;11.00;99.90;;;10.02;100.00;101318.16;4975928;28;20041;-74
2023/09/02 04:40:40;;;;;;;11.38;6.78;;;11.10;99.90;;;10.06;100.00;101314.50;5008156;28;20069;-75
2023/09/02 04:43:10;;;;;;;13.50;7.45;;;11.10;99.90;;;10.12;100.00;101320.47;5007094;28;20424;-73
2023/09/02 04:45:39;;;;;;;16.20;9.25;;;11.10;99.90;;;10.19;100.00;101319.31;4988705;28;20026;-73
2023/09/02 04:48:10;;;;;;;22.88;11.50;;;11.20;99.90;;;10.27;100.00;101322.53;4975121;28;20112;-73
2023/09/02 04:50:38;;;;;;;19.77;9.48;;;11.30;99.90;;;10.40;100.00;101329.13;5009299;28;20503;-73
2023/09/02 04:53:04;;;;;;;15.90;9.50;;;11.40;99.90;;;10.51;100.00;101333.13;4989246;28;20026;-73
2023/09/02 04:55:29;;;;;;;14.82;9.07;;;11.50;99.90;;;10.61;100.00;101335.38;4989497;28;20387;-73
2023/09/02 04:57:57;;;;;;;14.02;9.88;;;11.60;99.90;;;10.72;100.00;101334.13;4973876;28;20038;-73
2023/09/02 05:00:29;;;;;;;25.48;10.70;;;11.60;99.90;;;10.87;100.00;101344.94;4991469;28;20070;-74
2023/09/02 05:02:55;;;;;;;19.30;10.98;;;11.80;99.90;;;11.17;100.00;101349.94;4991081;28;20530;-73
2023/09/02 05:05:23;;;;;;;19.77;10.75;;;12.00;99.90;;;11.28;100.00;101358.28;5006209;28;20048;-73
2023/09/02 05:07:51;;;;;;;14.82;10.23;;;12.10;99.90;;;11.64;100.00;101356.84;4990430;28;20077;-74
2023/09/02 05:10:17;;;;;;;17.80;9.80;;;12.30;99.90;;;11.83;100.00;101357.81;4990668;28;20037;-76
2023/09/02 05:12:43;;;;;;;23.92;10.90;;;12.60;99.90;;;12.74;100.00;101372.38;4990809;28;20033;-75
2023/09/02 05:15:09;;;;;;;13.88;10.00;;;12.80;99.90;;;12.48;100.00;101373.56;4990817;28;20105;-73
2023/09/02 05:17:35;;;;;;;13.80;9.77;;;12.90;99.90;;;12.58;100.00;101380.16;4974992;28;20375;-74
2023/09/02 05:20:03;;;;;;;17.05;10.23;;;13.50;99.90;;;15.07;95.80;101394.34;4989314;28;20180;-73
2023/09/02 05:22:29;;;;;;;19.23;8.55;;;14.50;99.90;;;17.27;84.08;101407.97;5021689;28;20550;-73
2023/09/02 05:24:58;;;;;;;17.40;7.72;;;15.70;99.90;;;19.04;75.32;101415.59;4991250;28;20462;-73
2023/09/02 05:27:24;;;;;;;11.13;6.43;;;16.90;99.90;;;20.50;69.17;101425.34;5005968;28;20033;-73
2023/09/02 05:29:50;;;;;;;11.27;5.70;;;18.00;99.90;;;21.77;64.69;101445.59;4987808;28;20057;-74
2023/09/02 05:32:16;;;;;;;9.80;5.50;;;19.00;99.90;;;22.85;61.10;101459.72;5007410;28;20060;-74
2023/09/02 05:34:43;;;;;;;9.65;5.35;;;19.90;99.90;;;23.78;58.26;101478.44;4979545;28;20057;-73
2023/09/02 05:37:08;;;;;;;7.63;5.15;;;20.70;99.90;;;24.69;55.78;101492.47;5007189;28;20105;-73
2023/09/02 05:39:34;;;;;;;7.90;4.43;;;21.50;99.90;;;25.14;54.50;101502.53;4991332;28;20053;-73
2023/09/02 05:42:00;;;;;;;8.43;5.25;;;21.70;99.90;;;23.89;56.52;101494.47;5005392;28;20058;-73
2023/09/02 05:44:26;;;;;;;13.13;5.60;;;21.80;99.90;;;23.15;56.94;101490.25;4987905;28;20070;-74
2023/09/02 05:46:52;;;;;;;12.88;6.30;;;21.40;99.90;;;21.40;61.17;101462.84;5004737;28;20109;-73
2023/09/02 05:49:17;;;;;;;9.98;6.35;;;20.90;99.90;;;20.48;63.49;101465.56;5007271;28;20126;-73
2023/09/02 05:51:43;;;;;;;16.13;7.55;;;20.30;99.90;;;19.27;67.17;101456.69;5006653;28;20484;-73
2023/09/02 05:54:09;;;;;;;14.50;8.02;;;19.60;99.90;;;18.26;70.62;101458.34;5014056;23;20053;-74
2023/09/02 05:56:36;;;;;;;13.98;8.52;;;18.90;99.90;;;17.55;73.73;101454.97;5006821;28;20041;-74
2023/09/02 05:59:03;;;;;;;17.75;8.63;;;18.30;99.90;;;17.04;76.53;101454.66;5013303;28;20487;-74
2023/09/02 06:01:29;;;;;;;16.48;9.10;;;17.90;99.90;;;16.69;79.01;101444.34;5026135;28;20037;-74
2023/09/02 06:03:55;;;;;;;16.73;10.10;;;17.60;99.90;;;16.55;80.57;101434.56;4986799;28;20857;-74
2023/09/02 06:06:21;;;;;;;17.02;10.40;;;17.40;99.90;;;16.49;82.19;101439.38;5022886;28;20041;-74
2023/09/02 06:08:48;;;;;;;13.40;9.23;;;17.30;99.90;;;16.49;83.07;101445.56;5004993;28;20034;-74
2023/09/02 06:11:14;;;;;;;17.67;10.10;;;17.30;99.90;;;16.65;82.61;101441.97;5005877;28;20021;-74
2023/09/02 06:13:40;;;;;;;16.63;9.88;;;17.30;99.90;;;16.76;83.04;101451.00;5025260;28;20053;-73
2023/09/02 06:16:06;;;;;;;20.65;11.35;;;17.40;99.90;;;16.81;84.05;101435.66;5004066;28;20034;-73
2023/09/02 06:18:34;;;;;;;23.67;12.82;;;17.40;99.90;;;16.87;83.95;101439.75;5006363;28;20132;-74
2023/09/02 06:21:11;;;;;;;28.42;15.20;;;17.50;99.90;;;16.94;84.56;101448.22;5028639;28;20076;-74
2023/09/02 06:23:41;;;;;;;30.02;15.60;;;17.50;99.90;;;16.89;85.13;101444.97;5011783;28;20029;-73
2023/09/02 06:26:07;;;;;;;35.53;16.20;;;17.50;99.90;;;17.01;85.23;101453.03;5006815;28;20025;-74
2023/09/02 06:28:33;;;;;;;29.15;15.13;;;17.60;99.90;;;17.07;85.93;101448.31;5004980;28;20040;-73
2023/09/02 06:31:03;;;;;;;35.10;16.65;;;17.70;99.90;;;17.13;85.30;101454.09;5005189;28;20044;-73
2023/09/02 06:33:29;;;;;;;36.33;17.25;;;17.70;99.90;;;17.28;85.23;101454.94;5012320;28;20108;-73
2023/09/02 06:35:55;;;;;;;30.35;16.38;;;17.80;99.90;;;17.24;85.32;101465.88;4993993;28;20561;-74
2023/09/02 06:38:20;;;;;;;38.25;17.33;;;17.80;99.90;;;17.15;85.70;101465.50;5004331;28;20044;-74
2023/09/02 06:40:46;;;;;;;55.97;18.15;;;17.80;99.90;;;17.08;86.29;101465.97;5023044;28;20391;-74
2023/09/02 06:43:12;;;;;;;52.65;18.95;;;17.70;99.90;;;16.98;86.77;101471.00;5005681;28;20123;-74
2023/09/02 06:45:38;;;;;;;70.43;19.90;;;17.70;99.90;;;16.96;87.72;101468.44;5004345;28;20041;-72
2023/09/02 06:48:04;;;;;;;55.72;20.50;;;17.70;99.90;;;16.96;87.96;101467.59;5004399;28;20033;-72
2023/09/02 06:50:30;;;;;;;47.88;20.88;;;17.70;99.90;;;16.95;88.37;101472.06;5007588;28;20046;-71
2023/09/02 06:52:56;;;;;;;56.58;23.23;;;17.60;99.90;;;16.96;88.86;101478.22;5005082;28;20044;-72
2023/09/02 06:55:23;;;;;;;39.70;20.65;;;17.60;99.90;;;16.98;89.80;101479.84;5022202;28;20624;-72
2023/09/02 06:57:49;;;;;;;44.53;21.80;;;17.70;99.90;;;17.06;90.03;101484.66;5003930;28;20069;-72
2023/09/02 07:00:15;;;;;;;49.33;21.83;;;17.70;99.90;;;17.10;89.81;101488.84;5005115;28;20116;-72
2023/09/02 07:02:42;;;;;;;50.88;22.50;;;17.80;99.90;;;17.19;90.22;101490.97;5005563;28;20095;-71
2023/09/02 07:05:08;;;;;;;40.35;21.73;;;17.80;99.90;;;17.22;90.64;101492.56;5024635;28;20093;-71
2023/09/02 07:07:36;;;;;;;43.40;23.60;;;17.90;99.90;;;17.31;90.73;101497.31;5002413;28;20398;-71
2023/09/02 07:10:03;;;;;;;47.28;22.00;;;18.10;99.90;;;17.96;89.57;101506.53;4989516;28;20030;-78
2023/09/02 07:12:29;;;;;;;35.30;20.63;;;18.30;99.90;;;17.82;88.67;101505.63;5005736;28;20068;-71
2023/09/02 07:14:55;;;;;;;35.08;20.67;;;18.40;99.90;;;17.99;88.11;101504.53;5021124;28;20431;-72
2023/09/02 07:17:20;;;;;;;37.15;20.13;;;18.50;99.90;;;18.27;87.08;101515.16;4993799;28;20022;-73
2023/09/02 07:19:46;;;;;;;36.65;20.10;;;18.70;99.90;;;18.46;86.10;101520.97;5005503;28;20048;-72
2023/09/02 07:22:14;;;;;;;28.90;18.50;;;19.10;99.90;;;19.18;83.95;101523.19;5024723;28;20030;-72
2023/09/02 07:24:40;;;;;;;28.85;17.95;;;19.40;99.90;;;19.44;82.24;101530.25;5005779;28;20124;-72
2023/09/02 07:27:06;;;;;;;28.77;17.55;;;19.70;99.90;;;19.67;82.05;101535.75;5003848;28;20403;-72
2023/09/02 07:29:32;;;;;;;29.10;16.40;;;19.90;99.90;;;19.79;80.55;101540.25;5003432;28;20056;-72
2023/09/02 07:31:57;;;;;;;24.98;17.08;;;20.20;99.90;;;20.41;78.42;101546.38;5021818;28;20029;-72
2023/09/02 07:34:23;;;;;;;23.63;15.23;;;20.70;99.90;;;21.80;75.17;101558.81;5004499;28;20064;-73
2023/09/02 07:36:49;;;;;;;21.13;14.20;;;21.70;99.90;;;22.61;71.82;101570.03;4990458;28;20022;-72
2023/09/02 07:39:16;;;;;;;21.98;13.15;;;22.70;99.90;;;23.04;69.18;101566.41;4992645;28;20099;-72
2023/09/02 07:41:43;;;;;;;23.70;12.52;;;23.10;99.90;;;23.14;67.72;101563.78;5004780;28;20044;-72
2023/09/02 07:44:11;;;;;;;20.33;12.38;;;23.30;99.90;;;23.48;66.90;101575.13;5006260;28;20026;-72
2023/09/02 07:46:37;;;;;;;18.90;11.70;;;23.70;99.90;;;24.04;64.86;101580.97;5002518;28;20022;-72
2023/09/02 07:49:03;;;;;;;22.35;11.23;;;24.40;99.90;;;24.80;63.05;101585.72;5004541;28;20376;-72
2023/09/02 07:51:28;;;;;;;15.57;10.23;;;25.20;99.90;;;26.03;60.68;101603.66;5021423;28;20034;-72
2023/09/02 07:53:54;;;;;;;18.85;10.85;;;25.90;99.90;;;26.55;59.11;101609.22;5003042;28;20486;-72
2023/09/02 07:56:22;;;;;;;16.65;9.60;;;26.70;99.90;;;27.29;57.44;101623.38;5021730;28;20494;-72
2023/09/02 07:58:49;;;;;;;14.65;9.77;;;27.60;99.90;;;27.69;55.39;101624.56;5005449;28;20418;-72
2023/09/02 08:01:15;;;;;;;15.13;10.07;;;27.80;99.90;;;27.07;55.95;101630.13;5004318;28;20435;-72
2023/09/02 08:03:41;;;;;;;18.45;9.38;;;27.30;99.90;;;26.83;56.71;101631.63;4990469;28;20403;-72
2023/09/02 08:06:08;;;;;;;18.20;9.63;;;27.50;99.90;;;27.74;54.98;101639.34;5022342;28;20030;-74
2023/09/02 08:08:35;;;;;;;14.65;8.98;;;28.20;99.90;;;28.30;54.25;101645.13;5004965;28;20037;-73
2023/09/02 08:11:03;;;;;;;14.60;8.63;;;28.60;99.90;;;28.28;53.01;101673.41;5003698;28;20033;-73
2023/09/02 08:13:29;;;;;;;15.23;8.23;;;28.00;99.90;;;26.87;53.89;101661.84;4993415;28;20033;-72
2023/09/02 08:15:55;;;;;;;13.32;8.35;;;27.40;99.90;;;25.86;56.11;101641.19;5002403;28;20026;-73
2023/09/02 08:18:20;;;;;;;13.77;8.48;;;26.60;99.90;;;25.18;58.21;101649.44;5020700;28;20038;-73
2023/09/02 08:20:46;;;;;;;12.95;8.00;;;26.50;99.90;;;25.91;57.27;101655.09;5021179;28;20037;-73
2023/09/02 08:23:12;;;;;;;13.05;8.20;;;26.40;99.90;;;25.63;57.37;101656.03;5005102;28;20049;-73
2023/09/02 08:25:37;;;;;;;16.23;8.00;;;26.40;99.90;;;25.85;57.41;101660.19;5021188;28;20042;-73
2023/09/02 08:28:04;;;;;;;11.27;7.45;;;26.70;99.90;;;26.86;55.67;101674.53;5003293;28;20037;-73
2023/09/02 08:30:29;;;;;;;9.80;6.35;;;27.30;99.90;;;27.28;53.86;101678.44;5019538;28;20041;-73
2023/09/02 08:32:55;;;;;;;9.27;6.80;;;27.50;99.90;;;26.90;54.17;101689.44;5004646;28;20021;-72
2023/09/02 08:35:21;;;;;;;12.65;7.28;;;27.70;99.90;;;27.47;53.52;101693.59;4991608;28;20029;-73
2023/09/02 08:37:46;;;;;;;9.50;6.22;;;28.20;99.90;;;28.31;52.36;101697.44;5003803;28;20029;-73
2023/09/02 08:40:14;;;;;;;11.02;6.32;;;28.80;99.90;;;28.49;50.68;101702.75;5021374;28;20547;-73
2023/09/02 08:42:40;;;;;;;9.55;5.78;;;29.30;99.90;;;29.13;50.01;101719.31;5003279;28;20037;-73
2023/09/02 08:45:08;;;;;;;11.15;5.03;;;29.80;99.90;;;29.56;49.24;101718.06;4994587;28;20036;-74
2023/09/02 08:47:37;;;;;;;8.55;5.15;;;30.10;99.90;;;29.74;48.02;101725.19;4991404;28;20029;-74
2023/09/02 08:50:04;;;;;;;12.57;5.18;;;30.30;99.90;;;29.90;48.42;101727.03;4992204;28;20041;-74
2023/09/02 08:52:30;;;;;;;7.65;5.00;;;30.40;99.90;;;29.88;48.28;101738.03;5002097;28;20391;-73
2023/09/02 08:54:56;;;;;;;8.48;5.10;;;30.30;99.00;;;29.65;48.72;101733.34;4991285;28;20120;-74
2023/09/02 08:57:22;;;;;;;9.40;4.55;;;30.10;99.40;;;29.32;48.16;101740.66;5005136;28;20044;-74
2023/09/02 08:59:48;;;;;;;8.10;4.47;;;29.90;99.00;;;29.08;48.36;101741.47;4991710;28;20037;-74
2023/09/02 09:02:15;;;;;;;6.90;4.55;;;29.50;99.30;;;28.67;48.67;101743.28;5001326;28;20080;-74
2023/09/02 09:04:41;;;;;;;8.75;3.90;;;29.10;99.60;;;28.21;49.84;101741.75;4988930;28;20380;-74
2023/09/02 09:07:09;;;;;;;6.95;3.63;;;28.60;99.70;;;27.79;50.12;101731.69;5002014;28;20046;-74
2023/09/02 09:09:39;;;;;;;5.45;3.03;;;28.20;99.90;;;27.33;51.45;101727.50;5003652;28;20084;-74
2023/09/02 09:12:07;;;;;;;8.60;3.70;;;27.80;99.90;;;26.87;52.56;101715.91;4991820;28;20037;-74
2023/09/02 09:14:37;;;;;;;6.65;3.83;;;27.50;99.90;;;26.63;52.25;101706.59;5003848;28;20030;-74
2023/09/02 09:17:04;;;;;;;10.02;3.20;;;27.20;99.90;;;26.45;52.47;101698.41;5022807;28;20044;-74
2023/09/02 09:19:33;;;;;;;3.45;2.60;;;27.00;99.90;;;26.37;52.46;101709.09;5009868;28;20048;-73
2023/09/02 09:22:02;;;;;;;6.18;2.70;;;26.90;99.90;;;26.20;52.48;101705.38;4993501;28;20499;-74
2023/09/02 09:24:30;;;;;;;6.70;3.10;;;26.70;99.90;;;25.89;52.66;101699.41;5021176;28;20040;-74
2023/09/02 09:26:59;;;;;;;7.22;2.92;;;26.50;99.90;;;25.69;52.72;101699.44;5021709;28;20034;-74
2023/09/02 09:29:25;;;;;;;4.70;2.65;;;26.30;99.90;;;25.49;53.36;101693.28;5004303;28;20037;-74
2023/09/02 09:32:14;;;;;;;5.55;2.70;;;26.00;99.90;;;25.17;53.71;101690.88;5019863;28;20030;-74
2023/09/02 09:34:44;;;;;;;6.72;2.72;;;25.80;99.90;;;24.98;54.61;101694.44;5003279;28;20042;-72
2023/09/02 09:37:11;;;;;;;4.93;2.53;;;25.60;99.90;;;24.89;54.58;101701.53;4976767;28;20022;-73
2023/09/02 09:39:46;;;;;;;7.07;2.88;;;25.40;99.90;;;24.47;54.40;101687.41;5034880;28;20164;-72
2023/09/02 09:42:17;;;;;;;5.43;2.50;;;25.20;99.90;;;24.16;56.55;101682.94;5018884;28;20080;-73
2023/09/02 09:44:57;;;;;;;5.88;2.75;;;25.00;99.90;;;24.34;56.75;101683.16;5004488;28;20680;-72
2023/09/02 09:47:25;;;;;;;5.63;2.42;;;25.00;99.90;;;24.44;55.89;101687.69;5020332;28;20038;-73
2023/09/02 09:50:10;;;;;;;6.47;2.92;;;25.10;99.90;;;24.55;55.13;101690.28;5001434;28;20046;-73
2023/09/02 09:52:35;;;;;;;5.43;2.22;;;25.20;99.90;;;24.68;55.99;101680.09;5004887;28;20124;-72
2023/09/02 09:55:04;;;;;;;5.68;2.10;;;25.30;99.90;;;24.66;53.95;101690.16;5000488;28;20117;-73
2023/09/02 09:57:29;;;;;;;5.25;2.22;;;25.20;99.90;;;24.61;55.17;101681.66;5001467;28;20037;-73
2023/09/02 09:59:56;;;;;;;10.30;2.47;;;25.30;99.90;;;24.76;54.84;101677.56;5020445;28;20051;-73
2023/09/02 10:02:28;;;;;;;5.90;2.63;;;25.40;99.90;;;24.83;55.49;101679.69;5001544;28;20099;-73
2023/09/02 10:05:02;;;;;;;4.90;2.45;;;25.40;99.90;;;24.91;55.10;101677.16;5002928;28;20111;-72
2023/09/02 10:07:35;;;;;;;3.28;2.17;;;25.40;99.90;;;24.63;54.12;101682.38;5001195;28;20387;-73
2023/09/02 10:10:08;;;;;;;5.00;2.40;;;25.30;99.90;;;24.34;53.35;101683.16;5004624;28;20120;-73
2023/09/02 10:12:34;;;;;;;6.88;2.25;;;25.10;99.90;;;24.36;54.54;101677.59;5002121;28;20040;-74